Time;durP1;ratioP1;P1;durP2;ratioP2;P2;SDS_P1;SDS_P2;PMS_P1;PMS_P2;Temp;Humidity;BMP_temperature;BMP_pressure;BME280_temperature;BME280_humidity;BME280_pressure;Samples;Min_cycle;Max_cycle;Signal;HPM_P1;HPM_P2
2021/11/25 00:02:03;;;;;;;;;;;6.80;99.90;;;;;;5086668;28;19928;-80
2021/11/25 00:04:31;;;;;;;;;;;6.80;99.90;;;;;;5098228;28;19919;-80
2021/11/25 00:06:58;;;;;;;;;;;6.80;99.90;;;;;;5098162;28;19909;-79
2021/11/25 00:09:24;;;;;;;;;;;6.80;99.90;;;;;;5089407;28;20043;-81
2021/11/25 00:11:51;;;;;;;;;;;6.80;99.90;;;;;;5085532;28;19935;-81
2021/11/25 00:14:18;;;;;;;;;;;6.80;99.90;;;;;;5085346;28;20014;-81
2021/11/25 00:16:46;;;;;;;;;;;6.80;99.90;;;;;;5084305;28;19936;-81
2021/11/25 00:19:13;;;;;;;;;;;6.80;99.90;;;;;;5084689;28;19925;-81
2021/11/25 00:21:42;;;;;;;;;;;6.80;99.90;;;;;;5085795;28;19940;-79
2021/11/25 00:24:09;;;;;;;;;;;6.80;99.90;;;;;;5085067;28;20050;-80
2021/11/25 00:26:36;;;;;;;;;;;6.80;99.90;;;;;;5085467;28;19930;-82
2021/11/25 00:29:03;;;;;;;;;;;6.70;99.90;;;;;;5106962;22;19925;-82
2021/11/25 00:31:30;;;;;;;;;;;6.70;99.90;;;;;;5078987;28;19959;-81
2021/11/25 00:33:57;;;;;;;;;;;7.00;99.90;;;;;;5078802;28;19960;-82
2021/11/25 00:36:26;;;;;;;;;;;6.80;99.90;;;;;;5078413;28;20374;-80
2021/11/25 00:38:54;;;;;;;;;;;6.70;99.90;;;;;;5078295;28;19960;-82
2021/11/25 00:41:21;;;;;;;;;;;6.70;99.90;;;;;;5078087;28;20330;-82
2021/11/25 00:43:48;;;;;;;;;;;6.70;99.90;;;;;;5077945;28;19996;-83
2021/11/25 00:46:15;;;;;;;;;;;6.70;99.90;;;;;;5079917;28;19924;-80
2021/11/25 00:48:41;;;;;;;;;;;6.70;99.90;;;;;;5079374;28;19928;-82
2021/11/25 00:51:11;;;;;;;;;;;6.70;99.90;;;;;;5079666;28;19924;-83
2021/11/25 00:53:37;;;;;;;;;;;6.70;99.90;;;;;;5084876;28;20310;-79
2021/11/25 00:56:06;;;;;;;;;;;6.70;99.90;;;;;;5087530;28;19935;-78
2021/11/25 00:58:32;;;;;;;;;;;6.70;99.90;;;;;;5088185;28;20390;-79
2021/11/25 01:00:59;;;;;;;;;;;6.70;99.90;;;;;;5094601;28;20351;-79
2021/11/25 01:03:26;;;;;;;;;;;6.80;99.90;;;;;;5093378;28;19924;-79
2021/11/25 01:05:53;;;;;;;;;;;6.80;99.90;;;;;;5098226;28;19990;-79
2021/11/25 01:08:19;;;;;;;;;;;6.80;99.90;;;;;;5096055;28;19924;-80
2021/11/25 01:10:46;;;;;;;;;;;6.80;99.90;;;;;;5091173;28;19925;-81
2021/11/25 01:13:15;;;;;;;;;;;6.80;99.90;;;;;;5098450;28;19923;-82
2021/11/25 01:15:42;;;;;;;;;;;6.80;99.90;;;;;;5099433;28;20006;-82
2021/11/25 01:18:10;;;;;;;;;;;6.80;99.90;;;;;;5092496;28;19925;-82
2021/11/25 01:20:37;;;;;;;;;;;6.80;99.90;;;;;;5086282;28;19974;-82
2021/11/25 01:23:05;;;;;;;;;;;6.70;99.90;;;;;;5081909;28;20019;-82
2021/11/25 01:25:32;;;;;;;;;;;6.80;99.90;;;;;;5080709;28;19970;-80
2021/11/25 01:27:58;;;;;;;;;;;6.70;99.90;;;;;;5081648;28;19925;-81
2021/11/25 01:30:26;;;;;;;;;;;6.70;99.90;;;;;;5081951;28;19924;-81
2021/11/25 01:32:54;;;;;;;;;;;6.70;99.90;;;;;;5084232;28;19968;-79
2021/11/25 01:35:20;;;;;;;;;;;6.70;99.90;;;;;;5082230;28;19925;-82
2021/11/25 01:37:48;;;;;;;;;;;6.70;99.90;;;;;;5087383;28;19946;-79
2021/11/25 01:40:17;;;;;;;;;;;6.70;99.90;;;;;;5086060;28;20379;-79
2021/11/25 01:42:44;;;;;;;;;;;6.80;99.90;;;;;;5083148;28;20011;-81
2021/11/25 01:45:11;;;;;;;;;;;6.70;99.90;;;;;;5081683;28;19963;-81
2021/11/25 01:47:42;;;;;;;;;;;6.70;99.90;;;;;;5083132;28;20358;-81
2021/11/25 01:50:09;;;;;;;;;;;6.70;99.90;;;;;;5082245;28;20456;-81
2021/11/25 01:52:36;;;;;;;;;;;6.70;99.90;;;;;;5081215;28;19925;-81
2021/11/25 01:55:02;;;;;;;;;;;6.60;99.90;;;;;;5082254;28;20017;-80
2021/11/25 01:57:29;;;;;;;;;;;6.60;99.90;;;;;;5096090;28;19936;-80
2021/11/25 01:59:56;;;;;;;;;;;6.60;99.90;;;;;;5090561;28;19931;-81
2021/11/25 02:02:23;;;;;;;;;;;6.60;99.90;;;;;;5079990;28;19940;-81
2021/11/25 02:04:51;;;;;;;;;;;6.60;99.90;;;;;;5079803;28;19924;-80
2021/11/25 02:07:18;;;;;;;;;;;6.60;99.90;;;;;;5078448;28;20027;-80
2021/11/25 02:09:45;;;;;;;;;;;6.50;99.90;;;;;;5079214;28;19931;-81
2021/11/25 02:12:11;;;;;;;;;;;6.50;99.90;;;;;;5080018;28;19967;-80
2021/11/25 02:14:39;;;;;;;;;;;6.50;99.90;;;;;;5084068;28;19971;-80
2021/11/25 02:17:06;;;;;;;;;;;6.50;99.90;;;;;;5094006;28;20030;-80
2021/11/25 02:19:32;;;;;;;;;;;6.50;99.90;;;;;;5090078;28;19929;-79
2021/11/25 02:22:00;;;;;;;;;;;6.50;99.90;;;;;;5087854;28;19932;-79
2021/11/25 02:24:29;;;;;;;;;;;6.40;99.90;;;;;;5087674;28;19974;-81
2021/11/25 02:26:56;;;;;;;;;;;6.40;99.90;;;;;;5089336;28;19924;-81
2021/11/25 02:29:23;;;;;;;;;;;6.40;99.90;;;;;;5088637;28;19952;-79
2021/11/25 02:31:51;;;;;;;;;;;6.40;99.90;;;;;;5083166;28;19963;-80
2021/11/25 02:34:17;;;;;;;;;;;6.40;99.90;;;;;;5080805;28;19924;-80
2021/11/25 02:36:44;;;;;;;;;;;6.40;99.90;;;;;;5081043;28;20017;-81
2021/11/25 02:39:12;;;;;;;;;;;6.30;99.90;;;;;;5080604;28;19928;-80
2021/11/25 02:41:39;;;;;;;;;;;6.30;99.90;;;;;;5079910;28;19974;-81
2021/11/25 02:44:06;;;;;;;;;;;6.30;99.90;;;;;;5080134;28;19968;-81
2021/11/25 02:46:32;;;;;;;;;;;6.30;99.90;;;;;;5079951;28;19972;-81
2021/11/25 02:49:02;;;;;;;;;;;6.30;99.90;;;;;;5079109;28;19967;-81
2021/11/25 02:51:31;;;;;;;;;;;6.30;99.90;;;;;;5083744;28;19939;-81
2021/11/25 02:53:58;;;;;;;;;;;6.20;99.90;;;;;;5082454;28;19998;-79
2021/11/25 02:56:28;;;;;;;;;;;6.20;99.90;;;;;;5094185;28;19924;-79
2021/11/25 02:58:55;;;;;;;;;;;6.20;99.90;;;;;;5090120;28;20333;-80
2021/11/25 03:01:24;;;;;;;;;;;6.20;99.90;;;;;;5094572;28;19960;-81
2021/11/25 03:03:50;;;;;;;;;;;6.20;99.90;;;;;;5090944;28;19970;-81
2021/11/25 03:06:17;;;;;;;;;;;6.20;99.90;;;;;;5090379;28;19931;-79
2021/11/25 03:08:44;;;;;;;;;;;6.20;99.90;;;;;;5084209;28;19974;-82
2021/11/25 03:11:13;;;;;;;;;;;6.10;99.90;;;;;;5083782;28;19987;-79
2021/11/25 03:13:41;;;;;;;;;;;6.10;99.90;;;;;;5086996;28;19925;-78
2021/11/25 03:16:10;;;;;;;;;;;6.10;99.90;;;;;;5087230;28;19936;-79
2021/11/25 03:18:36;;;;;;;;;;;6.10;99.90;;;;;;5086432;28;19931;-79
2021/11/25 03:21:05;;;;;;;;;;;6.10;99.90;;;;;;5085857;28;19974;-79
2021/11/25 03:23:32;;;;;;;;;;;6.10;99.90;;;;;;5083863;28;20368;-81
2021/11/25 03:25:59;;;;;;;;;;;6.10;99.90;;;;;;5082390;28;19974;-80
2021/11/25 03:28:26;;;;;;;;;;;6.00;99.90;;;;;;5082420;28;20343;-80
2021/11/25 03:30:55;;;;;;;;;;;6.10;99.90;;;;;;5079438;28;19940;-79
2021/11/25 03:33:22;;;;;;;;;;;6.10;99.90;;;;;;5078378;28;19924;-81
2021/11/25 03:35:49;;;;;;;;;;;6.10;99.90;;;;;;5078349;28;19964;-81
2021/11/25 03:38:16;;;;;;;;;;;6.10;99.90;;;;;;5079804;28;19925;-81
2021/11/25 03:40:43;;;;;;;;;;;6.10;99.90;;;;;;5079442;28;19963;-81
2021/11/25 03:43:09;;;;;;;;;;;6.10;99.90;;;;;;5078321;28;19972;-81
2021/11/25 03:45:36;;;;;;;;;;;6.10;99.90;;;;;;5078721;28;19963;-80
2021/11/25 03:48:05;;;;;;;;;;;6.00;99.90;;;;;;5078357;28;19978;-81
2021/11/25 03:50:31;;;;;;;;;;;6.00;99.90;;;;;;5078249;28;19965;-80
2021/11/25 03:52:58;;;;;;;;;;;5.90;99.90;;;;;;5078067;28;19983;-80
2021/11/25 03:55:25;;;;;;;;;;;6.00;99.90;;;;;;5080496;28;19925;-78
2021/11/25 03:57:52;;;;;;;;;;;6.00;99.90;;;;;;5084512;28;19925;-80
2021/11/25 04:00:20;;;;;;;;;;;6.00;99.90;;;;;;5078522;28;19960;-82
2021/11/25 04:02:48;;;;;;;;;;;5.90;99.90;;;;;;5078827;28;19981;-81
2021/11/25 04:05:16;;;;;;;;;;;5.90;99.90;;;;;;5078321;28;19980;-82
2021/11/25 04:07:43;;;;;;;;;;;5.90;99.90;;;;;;5079362;28;19975;-80
2021/11/25 04:10:10;;;;;;;;;;;5.80;99.90;;;;;;5078382;28;19924;-79
2021/11/25 04:12:37;;;;;;;;;;;5.80;99.90;;;;;;5077683;28;20347;-81
2021/11/25 04:15:05;;;;;;;;;;;5.70;99.90;;;;;;5078408;28;19951;-80
2021/11/25 04:17:31;;;;;;;;;;;5.70;99.90;;;;;;5078130;28;19924;-80
2021/11/25 04:19:58;;;;;;;;;;;5.70;99.90;;;;;;5080334;28;19924;-82
2021/11/25 04:22:26;;;;;;;;;;;5.70;99.90;;;;;;5080080;28;19925;-82
2021/11/25 04:24:54;;;;;;;;;;;5.70;99.90;;;;;;5086893;28;19925;-80
2021/11/25 04:27:21;;;;;;;;;;;5.70;99.90;;;;;;5091281;28;19956;-82
2021/11/25 04:29:51;;;;;;;;;;;5.80;99.90;;;;;;5081014;28;19966;-82
2021/11/25 04:37:49;;;;;;;;;;;5.80;99.90;;;;;;5084062;28;19987;-81
2021/11/25 04:40:16;;;;;;;;;;;5.80;99.90;;;;;;5081859;28;19929;-78
2021/11/25 04:42:42;;;;;;;;;;;5.80;99.90;;;;;;5081659;28;19967;-82
2021/11/25 04:45:09;;;;;;;;;;;5.80;99.90;;;;;;5084377;28;20293;-80
2021/11/25 04:47:37;;;;;;;;;;;5.80;99.90;;;;;;5083400;28;19932;-81
2021/11/25 04:50:04;;;;;;;;;;;5.80;99.90;;;;;;5082666;28;20389;-81
2021/11/25 04:52:31;;;;;;;;;;;5.80;99.90;;;;;;5082895;28;19966;-81
2021/11/25 04:54:59;;;;;;;;;;;5.80;99.90;;;;;;5083863;28;19924;-81
2021/11/25 04:57:27;;;;;;;;;;;5.70;99.90;;;;;;5085171;28;19960;-80
2021/11/25 04:59:53;;;;;;;;;;;5.70;99.90;;;;;;5085444;28;19967;-79
2021/11/25 05:02:20;;;;;;;;;;;5.70;99.90;;;;;;5082508;28;19968;-81
2021/11/25 05:04:47;;;;;;;;;;;5.70;99.90;;;;;;5082098;28;20379;-81
2021/11/25 05:07:14;;;;;;;;;;;5.80;99.90;;;;;;5082753;28;19947;-82
2021/11/25 05:09:40;;;;;;;;;;;5.80;99.90;;;;;;5087632;28;19935;-81
2021/11/25 05:12:10;;;;;;;;;;;5.70;99.90;;;;;;5082540;28;19924;-80
2021/11/25 05:14:37;;;;;;;;;;;5.70;99.90;;;;;;5081640;28;20023;-81
2021/11/25 05:17:04;;;;;;;;;;;5.60;99.90;;;;;;5081782;28;20425;-80
2021/11/25 05:19:31;;;;;;;;;;;5.60;99.90;;;;;;5084911;28;19990;-81
2021/11/25 05:21:58;;;;;;;;;;;5.60;99.90;;;;;;5084036;28;19924;-81
2021/11/25 05:24:25;;;;;;;;;;;5.70;99.90;;;;;;5082400;28;19954;-80
2021/11/25 05:26:53;;;;;;;;;;;5.70;99.90;;;;;;5083603;28;19948;-79
2021/11/25 05:29:21;;;;;;;;;;;5.70;99.90;;;;;;5089136;28;19964;-78
2021/11/25 05:31:48;;;;;;;;;;;5.70;99.90;;;;;;5089753;28;19925;-80
2021/11/25 05:34:16;;;;;;;;;;;5.70;99.90;;;;;;5083455;28;20016;-82
2021/11/25 05:36:42;;;;;;;;;;;5.70;99.90;;;;;;5082587;28;19982;-82
2021/11/25 05:39:09;;;;;;;;;;;5.60;99.90;;;;;;5081820;28;20299;-81
2021/11/25 05:41:37;;;;;;;;;;;5.60;99.90;;;;;;5081027;28;19994;-79
2021/11/25 05:44:04;;;;;;;;;;;5.60;99.90;;;;;;5083495;28;19978;-80
2021/11/25 05:46:32;;;;;;;;;;;5.60;99.90;;;;;;5082795;28;20013;-82
2021/11/25 05:48:59;;;;;;;;;;;5.60;99.90;;;;;;5085529;28;19978;-79
2021/11/25 05:51:26;;;;;;;;;;;5.60;99.90;;;;;;5084347;28;19925;-80
2021/11/25 05:53:52;;;;;;;;;;;5.60;99.90;;;;;;5082081;28;19928;-81
2021/11/25 05:56:19;;;;;;;;;;;5.60;99.90;;;;;;5081083;28;19924;-81
2021/11/25 05:58:46;;;;;;;;;;;5.50;99.90;;;;;;5083567;28;19986;-83
2021/11/25 06:01:13;;;;;;;;;;;5.50;99.90;;;;;;5083274;28;19928;-81
2021/11/25 06:03:41;;;;;;;;;;;5.50;99.90;;;;;;5082358;28;19956;-81
2021/11/25 06:06:08;;;;;;;;;;;5.50;99.90;;;;;;5082364;28;19924;-80
2021/11/25 06:08:34;;;;;;;;;;;5.50;99.90;;;;;;5080520;28;19977;-82
2021/11/25 06:11:02;;;;;;;;;;;5.50;99.90;;;;;;5081466;28;19925;-81
2021/11/25 06:13:29;;;;;;;;;;;5.40;99.90;;;;;;5081087;28;20406;-80
2021/11/25 06:15:56;;;;;;;;;;;5.40;99.90;;;;;;5081900;28;19924;-80
2021/11/25 06:18:22;;;;;;;;;;;5.30;99.90;;;;;;5079484;28;19974;-81
2021/11/25 06:20:51;;;;;;;;;;;5.30;99.90;;;;;;5080630;28;19932;-81
2021/11/25 06:23:17;;;;;;;;;;;5.40;99.90;;;;;;5081169;28;19935;-81
2021/11/25 06:25:44;;;;;;;;;;;5.40;99.90;;;;;;5081900;28;20035;-81
2021/11/25 06:28:12;;;;;;;;;;;5.40;99.90;;;;;;5087030;28;19925;-79
2021/11/25 06:30:38;;;;;;;;;;;5.50;99.90;;;;;;5109049;22;19924;-78
2021/11/25 06:33:05;;;;;;;;;;;5.40;99.90;;;;;;5086422;28;19929;-79
2021/11/25 06:35:32;;;;;;;;;;;5.50;99.90;;;;;;5088301;28;20325;-78
2021/11/25 06:38:00;;;;;;;;;;;5.40;99.90;;;;;;5088115;28;19931;-81
2021/11/25 06:40:28;;;;;;;;;;;5.40;99.90;;;;;;5087530;28;19925;-80
2021/11/25 06:42:55;;;;;;;;;;;5.50;99.90;;;;;;5087987;28;19966;-81
2021/11/25 06:45:22;;;;;;;;;;;5.40;99.90;;;;;;5086487;28;20382;-81
2021/11/25 06:47:48;;;;;;;;;;;5.40;99.90;;;;;;5086429;28;19924;-81
2021/11/25 06:50:18;;;;;;;;;;;5.40;99.90;;;;;;5084690;28;19972;-80
2021/11/25 06:52:45;;;;;;;;;;;5.40;99.90;;;;;;5083693;28;19928;-81
2021/11/25 06:55:14;;;;;;;;;;;5.30;99.90;;;;;;5087350;28;19931;-81
2021/11/25 06:57:41;;;;;;;;;;;5.40;99.90;;;;;;5087388;28;19996;-81
2021/11/25 07:00:09;;;;;;;;;;;5.40;99.90;;;;;;5086948;28;20424;-81
2021/11/25 07:02:36;;;;;;;;;;;5.40;99.90;;;;;;5087558;28;19947;-80
2021/11/25 07:05:04;;;;;;;;;;;5.30;99.90;;;;;;5090516;28;19932;-81
2021/11/25 07:07:31;;;;;;;;;;;5.30;99.90;;;;;;5091200;28;19909;-80
2021/11/25 07:09:59;;;;;;;;;;;5.30;99.90;;;;;;5086284;28;20344;-81
2021/11/25 07:12:27;;;;;;;;;;;5.30;99.90;;;;;;5091035;28;19932;-81
2021/11/25 07:14:53;;;;;;;;;;;5.30;99.90;;;;;;5093269;28;19925;-80
2021/11/25 07:17:20;;;;;;;;;;;5.30;99.90;;;;;;5095296;28;19912;-79
2021/11/25 07:19:47;;;;;;;;;;;5.20;99.90;;;;;;5098651;28;19915;-81
2021/11/25 07:22:14;;;;;;;;;;;5.30;99.90;;;;;;5098251;28;19912;-80
2021/11/25 07:24:41;;;;;;;;;;;5.30;99.90;;;;;;5094297;28;19925;-78
2021/11/25 07:27:08;;;;;;;;;;;5.20;99.90;;;;;;5089492;28;19924;-79
2021/11/25 07:29:37;;;;;;;;;;;5.30;99.90;;;;;;5086975;28;19928;-79
2021/11/25 07:32:04;;;;;;;;;;;5.20;99.90;;;;;;5086689;28;19928;-79
2021/11/25 07:34:31;;;;;;;;;;;5.20;99.90;;;;;;5085906;28;19932;-80
2021/11/25 07:36:59;;;;;;;;;;;5.20;99.90;;;;;;5088435;28;19988;-81
2021/11/25 07:39:25;;;;;;;;;;;5.20;99.90;;;;;;5085775;28;19924;-80
2021/11/25 07:41:52;;;;;;;;;;;5.20;99.90;;;;;;5088035;28;20318;-80
2021/11/25 07:44:19;;;;;;;;;;;4.80;99.90;;;;;;5087683;28;19924;-83
2021/11/25 07:46:47;;;;;;;;;;;5.20;99.90;;;;;;5086206;28;19931;-80
2021/11/25 07:49:14;;;;;;;;;;;5.30;99.90;;;;;;5085227;28;19924;-81
2021/11/25 07:51:40;;;;;;;;;;;5.40;99.90;;;;;;5086819;28;19924;-82
2021/11/25 07:54:08;;;;;;;;;;;5.20;99.90;;;;;;5087037;28;20306;-82
2021/11/25 07:56:36;;;;;;;;;;;5.20;99.90;;;;;;5097880;28;19967;-80
2021/11/25 07:59:03;;;;;;;;;;;5.30;99.90;;;;;;5096181;28;19924;-83
2021/11/25 08:01:29;;;;;;;;;;;5.30;99.90;;;;;;5090063;28;19946;-84
2021/11/25 08:03:58;;;;;;;;;;;5.30;99.90;;;;;;5084610;28;19928;-82
2021/11/25 08:06:24;;;;;;;;;;;5.40;99.90;;;;;;5085779;28;19928;-82
2021/11/25 08:08:51;;;;;;;;;;;5.30;99.90;;;;;;5085191;28;19975;-81
2021/11/25 08:11:18;;;;;;;;;;;5.50;99.90;;;;;;5085112;28;19951;-82
2021/11/25 08:13:45;;;;;;;;;;;5.50;99.90;;;;;;5086115;28;19939;-80
2021/11/25 08:16:14;;;;;;;;;;;5.50;99.90;;;;;;5094013;28;19925;-80
2021/11/25 08:18:41;;;;;;;;;;;5.50;99.90;;;;;;5086261;28;19931;-81
2021/11/25 08:21:09;;;;;;;;;;;5.50;99.90;;;;;;5089627;28;19925;-81
2021/11/25 08:23:36;;;;;;;;;;;5.50;99.90;;;;;;5090138;28;19924;-81
2021/11/25 08:26:03;;;;;;;;;;;5.50;99.90;;;;;;5087651;28;19928;-82
2021/11/25 08:28:29;;;;;;;;;;;5.50;99.90;;;;;;5088020;28;19967;-80
2021/11/25 08:30:56;;;;;;;;;;;5.60;99.90;;;;;;5085071;28;19924;-80
2021/11/25 08:33:25;;;;;;;;;;;5.60;99.90;;;;;;5082971;28;19931;-81
2021/11/25 08:35:52;;;;;;;;;;;5.60;99.90;;;;;;5084399;28;20458;-81
2021/11/25 08:38:20;;;;;;;;;;;5.80;99.90;;;;;;5084294;28;19955;-82
2021/11/25 08:40:47;;;;;;;;;;;5.80;99.90;;;;;;5084471;28;19924;-81
2021/11/25 08:43:14;;;;;;;;;;;4.40;99.90;;;;;;5083730;28;19932;-80
2021/11/25 08:45:42;;;;;;;;;;;5.70;99.90;;;;;;5084970;28;19924;-82
2021/11/25 08:48:08;;;;;;;;;;;5.70;99.90;;;;;;5085327;28;19924;-82
2021/11/25 08:50:38;;;;;;;;;;;;;;;;;;5085179;28;20011;-82
2021/11/25 08:53:04;;;;;;;;;;;5.50;99.90;;;;;;5086947;28;19924;-83
2021/11/25 08:55:35;;;;;;;;;;;5.50;99.90;;;;;;5085904;28;20059;-80
2021/11/25 08:58:01;;;;;;;;;;;5.40;99.90;;;;;;5086298;28;19924;-81
2021/11/25 09:00:28;;;;;;;;;;;5.50;99.90;;;;;;5084862;28;19931;-82
2021/11/25 09:02:55;;;;;;;;;;;5.50;99.90;;;;;;5087581;28;19997;-82
2021/11/25 09:05:22;;;;;;;;;;;5.70;99.90;;;;;;5091541;28;19935;-82
2021/11/25 09:07:49;;;;;;;;;;;5.70;99.90;;;;;;5092837;28;19935;-82
2021/11/25 09:10:16;;;;;;;;;;;5.60;99.90;;;;;;5092584;28;19940;-81
2021/11/25 09:12:44;;;;;;;;;;;5.50;99.90;;;;;;5090407;28;20050;-82
2021/11/25 09:15:11;;;;;;;;;;;5.60;99.90;;;;;;5086279;28;20378;-82
2021/11/25 09:17:38;;;;;;;;;;;5.60;99.90;;;;;;5086207;28;19924;-81
2021/11/25 09:20:05;;;;;;;;;;;5.70;99.90;;;;;;5089070;28;19947;-81
2021/11/25 09:22:32;;;;;;;;;;;5.70;99.90;;;;;;5088475;28;19978;-81
2021/11/25 09:24:59;;;;;;;;;;;5.70;99.90;;;;;;5089114;28;19925;-81
2021/11/25 09:27:26;;;;;;;;;;;5.70;99.90;;;;;;5087985;28;19968;-81
2021/11/25 09:29:54;;;;;;;;;;;5.80;99.90;;;;;;5087996;28;19924;-81
2021/11/25 09:32:20;;;;;;;;;;;5.80;99.90;;;;;;5098976;28;19932;-81
2021/11/25 09:34:47;;;;;;;;;;;5.50;99.90;;;;;;5088520;28;20023;-81
2021/11/25 09:37:14;;;;;;;;;;;5.70;99.90;;;;;;5087583;28;19924;-82
2021/11/25 09:39:41;;;;;;;;;;;5.60;99.90;;;;;;5087368;28;19982;-82
2021/11/25 09:42:08;;;;;;;;;;;5.70;99.90;;;;;;5090437;28;19951;-83
2021/11/25 09:44:35;;;;;;;;;;;5.80;99.90;;;;;;5094353;28;19935;-80
2021/11/25 09:47:04;;;;;;;;;;;5.70;99.90;;;;;;5092592;28;20061;-80
2021/11/25 09:49:30;;;;;;;;;;;5.60;99.90;;;;;;5091213;28;19924;-80
2021/11/25 09:51:57;;;;;;;;;;;5.70;99.90;;;;;;5100463;28;19924;-79
2021/11/25 09:54:24;;;;;;;;;;;5.70;99.90;;;;;;5100440;28;19912;-82
2021/11/25 09:56:52;;;;;;;;;;;5.80;99.90;;;;;;5096434;28;19925;-83
2021/11/25 09:59:19;;;;;;;;;;;5.70;99.90;;;;;;5093741;28;19925;-83
2021/11/25 10:01:45;;;;;;;;;;;5.70;99.90;;;;;;5097019;28;19925;-83
2021/11/25 10:04:14;;;;;;;;;;;5.70;99.90;;;;;;5098752;28;19919;-82
2021/11/25 10:06:51;;;;;;;;;;;5.70;99.90;;;;;;5098748;28;19924;-82
2021/11/25 10:09:29;;;;;;;;;;;5.80;99.90;;;;;;5099043;28;19996;-82
2021/11/25 10:11:56;;;;;;;;;;;5.80;99.90;;;;;;5098484;28;19924;-81
2021/11/25 10:14:22;;;;;;;;;;;5.90;99.90;;;;;;5097084;28;19921;-81
2021/11/25 10:16:51;;;;;;;;;;;6.20;99.90;;;;;;5089832;28;19947;-84
2021/11/25 10:19:19;;;;;;;;;;;5.90;99.90;;;;;;5093094;28;19983;-83
2021/11/25 10:21:47;;;;;;;;;;;;;;;;;;5099221;28;19982;-83
2021/11/25 10:24:15;;;;;;;;;;;5.80;99.90;;;;;;5098265;28;19934;-81
2021/11/25 10:26:42;;;;;;;;;;;5.80;99.90;;;;;;5095793;28;19974;-81
2021/11/25 10:29:10;;;;;;;;;;;5.70;99.90;;;;;;5090893;28;19925;-82
2021/11/25 10:31:39;;;;;;;;;;;5.50;99.90;;;;;;5087088;28;19931;-81
2021/11/25 10:34:09;;;;;;;;;;;5.50;99.90;;;;;;5085022;28;19924;-81
2021/11/25 10:36:56;;;;;;;;;;;5.50;99.90;;;;;;5084980;28;19928;-82
2021/11/25 10:39:34;;;;;;;;;;;5.60;99.90;;;;;;5085286;28;19936;-81
2021/11/25 10:42:02;;;;;;;;;;;5.60;99.90;;;;;;5087043;28;19977;-80
2021/11/25 10:44:30;;;;;;;;;;;5.60;99.90;;;;;;5088930;28;20004;-80
2021/11/25 10:47:01;;;;;;;;;;;5.60;99.90;;;;;;5091764;28;19951;-81
2021/11/25 10:49:33;;;;;;;;;;;5.70;99.90;;;;;;5091604;28;20279;-82
2021/11/25 10:52:02;;;;;;;;;;;5.70;99.90;;;;;;5089771;28;19955;-82
2021/11/25 10:54:29;;;;;;;;;;;5.60;99.90;;;;;;5089689;28;19963;-82
2021/11/25 10:56:57;;;;;;;;;;;5.50;99.90;;;;;;5087868;28;19958;-81
2021/11/25 10:59:35;;;;;;;;;;;5.40;99.90;;;;;;5085727;28;19983;-81
2021/11/25 11:02:02;;;;;;;;;;;5.50;99.90;;;;;;5088550;28;19934;-80
2021/11/25 11:04:29;;;;;;;;;;;5.50;99.90;;;;;;5094180;28;19925;-81
2021/11/25 11:06:56;;;;;;;;;;;5.50;99.90;;;;;;5085334;28;19928;-81
2021/11/25 11:09:31;;;;;;;;;;;5.50;99.90;;;;;;5083795;28;19932;-81
2021/11/25 11:12:16;;;;;;;;;;;5.50;99.90;;;;;;5083573;28;19958;-84
2021/11/25 11:14:43;;;;;;;;;;;5.40;99.90;;;;;;5084815;28;19931;-82
2021/11/25 11:17:22;;;;;;;;;;;5.40;99.90;;;;;;5084306;28;19931;-82
2021/11/25 11:20:07;;;;;;;;;;;5.40;99.90;;;;;;5085116;28;19925;-82
2021/11/25 11:22:34;;;;;;;;;;;5.40;99.90;;;;;;5085471;28;19925;-82
2021/11/25 11:25:03;;;;;;;;;;;5.60;99.90;;;;;;5084710;28;19924;-82
2021/11/25 11:27:30;;;;;;;;;;;5.60;99.90;;;;;;5085237;28;19976;-83
2021/11/25 11:29:57;;;;;;;;;;;5.50;99.90;;;;;;5088089;28;19925;-82
2021/11/25 11:32:23;;;;;;;;;;;5.60;99.90;;;;;;5093282;28;19935;-81
2021/11/25 11:34:51;;;;;;;;;;;5.60;99.90;;;;;;5095081;28;19925;-80
2021/11/25 11:37:18;;;;;;;;;;;5.60;99.90;;;;;;5093254;28;19924;-79
2021/11/25 11:39:45;;;;;;;;;;;5.50;99.90;;;;;;5087632;28;19987;-79
2021/11/25 11:42:14;;;;;;;;;;;5.40;99.90;;;;;;5089917;28;19924;-82
2021/11/25 11:44:44;;;;;;;;;;;5.40;99.90;;;;;;5089666;28;19925;-80
2021/11/25 11:47:12;;;;;;;;;;;5.50;99.90;;;;;;5084359;28;19974;-81
2021/11/25 11:49:40;;;;;;;;;;;5.50;99.90;;;;;;5085213;28;19995;-82
2021/11/25 11:52:08;;;;;;;;;;;5.50;99.90;;;;;;5083913;28;19968;-82
2021/11/25 11:54:42;;;;;;;;;;;5.50;99.90;;;;;;5083872;28;19924;-81
2021/11/25 11:57:28;;;;;;;;;;;5.60;99.90;;;;;;5083169;28;19932;-81
2021/11/25 11:59:56;;;;;;;;;;;5.60;99.90;;;;;;5081610;28;19925;-81
2021/11/25 12:02:38;;;;;;;;;;;5.50;99.90;;;;;;5082953;28;19936;-81
2021/11/25 12:05:04;;;;;;;;;;;5.50;99.90;;;;;;5082765;28;19924;-81
2021/11/25 12:07:31;;;;;;;;;;;5.50;99.90;;;;;;5081019;28;19964;-79
2021/11/25 12:09:58;;;;;;;;;;;5.50;99.90;;;;;;5079431;28;19924;-79
2021/11/25 12:12:25;;;;;;;;;;;5.50;99.90;;;;;;5081015;28;19955;-78
2021/11/25 12:14:53;;;;;;;;;;;5.40;99.90;;;;;;5080470;28;20349;-79
2021/11/25 12:17:28;;;;;;;;;;;5.40;99.90;;;;;;5077650;28;20051;-78
2021/11/25 12:19:56;;;;;;;;;;;5.40;99.90;;;;;;5079484;28;19925;-79
2021/11/25 12:22:27;;;;;;;;;;;5.30;99.90;;;;;;5085363;28;19912;-78
2021/11/25 12:24:55;;;;;;;;;;;5.30;99.90;;;;;;5096396;28;19912;-78
2021/11/25 12:27:34;;;;;;;;;;;5.30;99.90;;;;;;5097162;28;20336;-77
2021/11/25 12:30:06;;;;;;;;;;;5.40;99.90;;;;;;5114508;22;19929;-79
2021/11/25 12:32:37;;;;;;;;;;;5.40;99.90;;;;;;5083467;28;19946;-77
2021/11/25 12:35:20;;;;;;;;;;;5.20;99.90;;;;;;5083716;28;19925;-77
2021/11/25 12:37:58;;;;;;;;;;;5.40;99.90;;;;;;5061256;28;19928;-77
2021/11/25 12:40:38;;;;;;;;;;;5.40;99.90;;;;;;5075466;28;19958;-77
2021/11/25 12:43:05;;;;;;;;;;;5.40;99.90;;;;;;5074638;28;20015;-78
2021/11/25 12:45:33;;;;;;;;;;;5.40;99.90;;;;;;5074295;28;19925;-79
2021/11/25 12:48:13;;;;;;;;;;;5.10;99.90;;;;;;5075254;28;19924;-78
2021/11/25 12:50:42;;;;;;;;;;;5.40;99.90;;;;;;5073570;28;19930;-78
2021/11/25 12:53:09;;;;;;;;;;;5.50;99.90;;;;;;5074282;28;19978;-78
2021/11/25 12:55:36;;;;;;;;;;;5.50;99.90;;;;;;5078290;28;19992;-78
2021/11/25 12:58:03;;;;;;;;;;;5.50;99.90;;;;;;5077759;28;19928;-78
2021/11/25 13:00:31;;;;;;;;;;;5.50;99.90;;;;;;5077425;28;19924;-78
2021/11/25 13:03:01;;;;;;;;;;;5.50;99.90;;;;;;5078155;28;19925;-78
2021/11/25 13:05:29;;;;;;;;;;;5.40;99.90;;;;;;5078300;28;20020;-79
2021/11/25 13:07:57;;;;;;;;;;;5.40;99.90;;;;;;5077299;28;20032;-78
2021/11/25 13:10:24;;;;;;;;;;;5.40;99.90;;;;;;5077401;28;19925;-78
2021/11/25 13:12:51;;;;;;;;;;;5.30;99.90;;;;;;5076994;28;19982;-78
2021/11/25 13:15:18;;;;;;;;;;;5.30;99.90;;;;;;5078413;28;20442;-78
2021/11/25 13:17:55;;;;;;;;;;;5.30;99.90;;;;;;5077669;28;20354;-78
2021/11/25 13:20:36;;;;;;;;;;;5.40;99.90;;;;;;5078689;28;19979;-78
2021/11/25 13:23:05;;;;;;;;;;;5.40;99.90;;;;;;5078934;28;20000;-78
2021/11/25 13:25:32;;;;;;;;;;;5.30;99.90;;;;;;5078078;28;20019;-78
2021/11/25 13:27:58;;;;;;;;;;;5.40;99.90;;;;;;5078420;28;20436;-78
2021/11/25 13:30:25;;;;;;;;;;;5.30;99.90;;;;;;5079261;28;20019;-78
2021/11/25 13:32:52;;;;;;;;;;;5.30;99.90;;;;;;5078460;28;20331;-78
2021/11/25 13:35:19;;;;;;;;;;;5.40;99.90;;;;;;5077815;28;19924;-77
2021/11/25 13:37:50;;;;;;;;;;;5.40;99.90;;;;;;5078778;28;20451;-79
2021/11/25 13:40:20;;;;;;;;;;;5.40;99.90;;;;;;5077696;28;19980;-78
2021/11/25 13:42:47;;;;;;;;;;;5.30;99.90;;;;;;5077381;28;19967;-78
2021/11/25 13:45:20;;;;;;;;;;;5.20;99.90;;;;;;5077276;28;19924;-78
2021/11/25 13:47:48;;;;;;;;;;;5.30;99.90;;;;;;5077228;28;20357;-78
2021/11/25 13:50:16;;;;;;;;;;;5.30;99.90;;;;;;5077368;28;19925;-78
2021/11/25 13:52:43;;;;;;;;;;;5.30;99.90;;;;;;5077865;28;20016;-78
2021/11/25 13:55:11;;;;;;;;;;;5.40;99.90;;;;;;5082140;28;19952;-78
2021/11/25 13:57:39;;;;;;;;;;;5.40;99.90;;;;;;5094009;28;19946;-77
2021/11/25 14:00:07;;;;;;;;;;;5.40;99.90;;;;;;5096343;28;19925;-77
2021/11/25 14:02:33;;;;;;;;;;;5.40;99.90;;;;;;5098671;28;19925;-78
2021/11/25 14:05:01;;;;;;;;;;;5.20;99.90;;;;;;5098407;28;19924;-78
2021/11/25 14:07:28;;;;;;;;;;;5.20;99.90;;;;;;5099528;28;19913;-77
2021/11/25 14:10:02;;;;;;;;;;;5.10;99.90;;;;;;5098327;28;19986;-78
2021/11/25 14:12:30;;;;;;;;;;;5.10;99.90;;;;;;5087033;28;19929;-79
2021/11/25 14:14:58;;;;;;;;;;;5.00;99.90;;;;;;5081181;28;19968;-78
2021/11/25 14:17:25;;;;;;;;;;;4.40;99.90;;;;;;5078895;28;20011;-78
2021/11/25 14:19:53;;;;;;;;;;;5.00;99.90;;;;;;5079213;28;19996;-78
2021/11/25 14:22:20;;;;;;;;;;;4.90;99.90;;;;;;5078699;28;19925;-78
2021/11/25 14:24:48;;;;;;;;;;;4.90;99.90;;;;;;5079386;28;19932;-78
2021/11/25 14:30:06;;;;;;;;;;;4.80;99.90;;;;;;5082038;28;19958;-77
2021/11/25 14:32:33;;;;;;;;;;;4.80;99.90;;;;;;5082274;28;19962;-78
2021/11/25 14:35:00;;;;;;;;;;;5.00;99.90;;;;;;5078128;28;19925;-77
2021/11/25 14:37:29;;;;;;;;;;;4.70;99.90;;;;;;5076956;28;19970;-78
2021/11/25 14:39:56;;;;;;;;;;;4.70;99.90;;;;;;5076425;28;19924;-78
2021/11/25 14:42:24;;;;;;;;;;;4.70;99.90;;;;;;5075767;28;19972;-79
2021/11/25 14:45:05;;;;;;;;;;;4.90;99.90;;;;;;5077960;28;19924;-78